Time;durP1;ratioP1;P1;durP2;ratioP2;P2;SDS_P1;SDS_P2;PMS_P1;PMS_P2;Temp;Humidity;BMP_temperature;BMP_pressure;BME280_temperature;BME280_humidity;BME280_pressure;Samples;Min_cycle;Max_cycle;Signal;HPM_P1;HPM_P2
2022/10/23 00:00:11;;;;;;;2.70;1.77;;;;;13.00;94150.00;;;;7394153;19;20121;-78
2022/10/23 00:02:39;;;;;;;1.42;1.33;;;;;13.00;94141.00;;;;7395163;19;20491;-78
2022/10/23 00:05:08;;;;;;;3.08;1.25;;;;;12.90;94138.00;;;;7395197;19;20501;-78
2022/10/23 00:07:41;;;;;;;3.80;1.58;;;;;12.90;94144.00;;;;7394156;19;20584;-78
2022/10/23 00:10:10;;;;;;;2.50;1.58;;;;;12.90;94144.00;;;;7393767;19;20188;-77
2022/10/23 00:12:37;;;;;;;2.58;1.73;;;;;12.80;94139.00;;;;7393896;19;20145;-79
2022/10/23 00:15:12;;;;;;;2.88;1.67;;;;;12.90;94144.00;;;;7396260;19;20124;-78
2022/10/23 00:17:42;;;;;;;3.60;1.42;;;;;12.80;94145.00;;;;7392596;19;20547;-78
2022/10/23 00:20:11;;;;;;;3.83;1.63;;;;;12.90;94148.00;;;;7396010;19;20129;-79
2022/10/23 00:22:45;;;;;;;7.00;1.48;;;;;12.80;94149.00;;;;7396413;19;20168;-78
2022/10/23 00:25:13;;;;;;;4.40;1.80;;;;;12.60;94148.00;;;;7394212;19;20638;-77
2022/10/23 00:27:40;;;;;;;4.50;1.30;;;;;12.60;94149.00;;;;7392190;19;20140;-79
2022/10/23 00:30:14;;;;;;;3.75;1.65;;;;;12.70;94140.00;;;;7392218;19;20151;-78
2022/10/23 00:32:42;;;;;;;5.38;1.35;;;;;13.00;94140.00;;;;7394222;19;20494;-78
2022/10/23 00:35:09;;;;;;;3.67;1.50;;;;;12.80;94131.00;;;;7394256;19;20148;-78
2022/10/23 00:37:43;;;;;;;3.03;1.88;;;;;12.80;94130.00;;;;7392495;19;20132;-77
2022/10/23 00:40:13;;;;;;;2.92;1.60;;;;;12.90;94126.00;;;;7392583;19;20152;-76
2022/10/23 00:42:45;;;;;;;2.15;1.73;;;;;12.80;94127.00;;;;7393129;19;20149;-77
2022/10/23 00:45:25;;;;;;;3.05;1.48;;;;;12.70;94123.00;;;;7390396;19;20142;-78
2022/10/23 00:47:54;;;;;;;1.60;1.40;;;;;12.60;94131.00;;;;7390750;19;20180;-79
2022/10/23 00:50:31;;;;;;;2.55;1.52;;;;;12.70;94124.00;;;;7393440;19;20140;-77
2022/10/23 00:53:05;;;;;;;6.55;1.58;;;;;12.60;94122.00;;;;7392080;19;20252;-78
2022/10/23 00:55:50;;;;;;;2.63;1.70;;;;;12.50;94122.00;;;;7389116;19;20238;-78
2022/10/23 00:58:19;;;;;;;10.43;1.55;;;;;12.30;94118.00;;;;7393127;19;20140;-78
2022/10/23 01:00:55;;;;;;;3.83;1.40;;;;;12.40;94122.00;;;;7393171;19;20158;-77
2022/10/23 01:03:26;;;;;;;4.13;1.40;;;;;12.50;94123.00;;;;7390353;19;20149;-79
2022/10/23 01:06:27;;;;;;;3.58;1.63;;;;;12.60;94127.00;;;;7390262;19;20143;-79
2022/10/23 01:09:18;;;;;;;3.15;1.75;;;;;12.60;94121.00;;;;7394224;19;20141;-78
2022/10/23 01:11:56;;;;;;;2.47;1.35;;;;;12.60;94115.00;;;;7389898;19;20510;-77
2022/10/23 01:14:39;;;;;;;1.95;1.30;;;;;12.50;94117.00;;;;7392193;19;20224;-76
2022/10/23 01:17:22;;;;;;;2.60;1.42;;;;;12.50;94101.00;;;;7394270;19;20152;-77
2022/10/23 01:20:30;;;;;;;4.03;1.38;;;;;12.40;94104.00;;;;7392257;19;20584;-78
2022/10/23 01:23:26;;;;;;;1.83;1.52;;;;;12.30;94107.00;;;;7393534;19;20610;-79
2022/10/23 01:26:24;;;;;;;3.08;1.63;;;;;12.50;94101.00;;;;7391068;19;20595;-78
2022/10/23 01:29:02;;;;;;;3.55;1.73;;;;;12.60;94097.00;;;;7393163;19;20600;-79
2022/10/23 01:31:55;;;;;;;6.40;1.73;;;;;12.50;94094.00;;;;7390756;19;20129;-79
2022/10/23 01:34:38;;;;;;;3.10;1.38;;;;;12.40;94094.00;;;;7392397;19;20599;-79
2022/10/23 01:37:14;;;;;;;1.75;1.35;;;;;12.50;94090.00;;;;7392965;19;20262;-79
2022/10/23 01:39:56;;;;;;;2.35;1.50;;;;;12.60;94096.00;;;;7392399;19;20129;-77
2022/10/23 01:42:38;;;;;;;1.23;1.13;;;;;12.60;94090.00;;;;7388771;19;20158;-79
2022/10/23 01:45:29;;;;;;;2.13;1.20;;;;;12.60;94086.00;;;;7392481;19;20200;-78
2022/10/23 01:47:56;;;;;;;2.38;1.50;;;;;12.60;94093.00;;;;7393172;19;20120;-79
2022/10/23 01:50:32;;;;;;;2.47;1.27;;;;;12.50;94088.00;;;;7397008;19;20157;-78
2022/10/23 01:53:03;;;;;;;4.32;1.45;;;;;12.50;94081.00;;;;7397481;19;20168;-78
2022/10/23 01:55:47;;;;;;;3.30;1.58;;;;;12.60;94081.00;;;;7395084;19;20165;-79
2022/10/23 01:58:22;;;;;;;1.90;1.30;;;;;12.70;94081.00;;;;7397921;19;20218;-77
2022/10/23 02:01:02;;;;;;;1.75;1.30;;;;;12.60;94080.00;;;;7398958;19;20484;-77
2022/10/23 02:03:32;;;;;;;1.38;1.13;;;;;12.60;94068.00;;;;7399244;19;20129;-78
2022/10/23 02:06:07;;;;;;;1.70;1.30;;;;;12.70;94075.00;;;;7398372;19;20144;-79
2022/10/23 02:08:35;;;;;;;2.40;0.90;;;;;12.70;94080.00;;;;7398965;19;20527;-76
2022/10/23 02:11:08;;;;;;;1.90;1.20;;;;;12.60;94069.00;;;;7400071;19;20188;-77
2022/10/23 02:14:23;;;;;;;2.30;1.20;;;;;12.70;94065.00;;;;7399395;19;20128;-79
2022/10/23 02:16:53;;;;;;;3.15;1.10;;;;;12.80;94055.00;;;;7397376;19;20507;-79
2022/10/23 02:19:45;;;;;;;2.05;1.00;;;;;12.90;94055.00;;;;7394947;19;20132;-78
2022/10/23 02:22:25;;;;;;;2.90;1.48;;;;;13.00;94048.00;;;;7394435;19;20135;-78
2022/10/23 02:25:10;;;;;;;4.00;1.10;;;;;12.90;94053.00;;;;7398887;19;20128;-78
2022/10/23 02:27:40;;;;;;;2.95;0.88;;;;;12.90;94047.00;;;;7395424;19;20148;-75
2022/10/23 02:30:18;;;;;;;1.08;0.98;;;;;13.00;94036.00;;;;7399290;19;20132;-78
2022/10/23 02:32:51;;;;;;;1.00;0.95;;;;;12.90;94039.00;;;;7397601;19;20129;-78
2022/10/23 02:35:25;;;;;;;2.92;1.00;;;;;13.00;94035.00;;;;7394199;19;20160;-79
2022/10/23 02:37:54;;;;;;;1.27;0.73;;;;;13.00;94034.00;;;;7396451;19;20623;-78
2022/10/23 02:40:27;;;;;;;1.20;1.05;;;;;13.00;94028.00;;;;7396564;19;20125;-77
2022/10/23 02:43:36;;;;;;;1.45;0.82;;;;;13.10;94032.00;;;;7393314;19;20149;-79
2022/10/23 02:46:27;;;;;;;0.70;0.70;;;;;13.00;94025.00;;;;7392303;19;20131;-79
2022/10/23 02:49:21;;;;;;;3.70;1.00;;;;;13.10;94019.00;;;;7397758;19;20136;-78
2022/10/23 02:52:06;;;;;;;0.90;0.80;;;;;13.20;94024.00;;;;7395409;19;20145;-79
2022/10/23 02:55:03;;;;;;;2.78;0.85;;;;;13.30;94025.00;;;;7396302;19;20153;-77
2022/10/23 02:58:08;;;;;;;0.80;0.80;;;;;13.10;94017.00;;;;7394297;19;20168;-78
2022/10/23 03:00:47;;;;;;;2.67;0.70;;;;;13.10;94018.00;;;;7394100;19;20128;-78
2022/10/23 03:03:39;;;;;;;3.13;0.60;;;;;13.10;94018.00;;;;7396068;19;20135;-77
2022/10/23 03:06:13;;;;;;;2.05;0.80;;;;;13.20;94019.00;;;;7396419;19;20145;-77
2022/10/23 03:08:56;;;;;;;1.48;0.90;;;;;13.20;94006.00;;;;7395348;19;20484;-79
2022/10/23 03:11:30;;;;;;;2.95;0.68;;;;;13.30;94018.00;;;;7393878;19;20149;-80
2022/10/23 03:13:57;;;;;;;1.98;0.90;;;;;13.20;94015.00;;;;7395169;19;20616;-75
2022/10/23 03:16:27;;;;;;;3.72;0.93;;;;;13.20;94014.00;;;;7397243;19;20136;-77
2022/10/23 03:19:02;;;;;;;0.77;0.63;;;;;13.30;94006.00;;;;7396767;19;20136;-78
2022/10/23 03:21:29;;;;;;;2.90;0.68;;;;;13.30;93996.00;;;;7394925;19;20204;-77
2022/10/23 03:23:59;;;;;;;2.13;0.80;;;;;13.40;94004.00;;;;7395466;19;20478;-79
2022/10/23 03:26:32;;;;;;;1.40;0.73;;;;;13.30;94001.00;;;;7396994;19;20612;-78
2022/10/23 03:29:00;;;;;;;0.80;0.80;;;;;13.30;94001.00;;;;7397374;19;20629;-78
2022/10/23 03:31:27;;;;;;;3.67;0.80;;;;;13.30;94001.00;;;;7394196;19;20522;-78
2022/10/23 03:34:01;;;;;;;1.45;0.80;;;;;13.20;94001.00;;;;7395275;19;20192;-79
2022/10/23 03:36:34;;;;;;;2.08;0.80;;;;;13.20;94002.00;;;;7394101;19;20150;-78
2022/10/23 03:39:03;;;;;;;0.90;0.80;;;;;13.10;94006.00;;;;7396126;19;20610;-78
2022/10/23 03:41:36;;;;;;;2.70;0.90;;;;;13.10;94003.00;;;;7393678;19;20187;-75
2022/10/23 03:44:04;;;;;;;2.75;0.85;;;;;13.20;94001.00;;;;7395317;19;20128;-78
2022/10/23 03:46:31;;;;;;;1.88;1.00;;;;;13.00;94001.00;;;;7396316;19;20485;-78
2022/10/23 03:49:06;;;;;;;2.92;0.68;;;;;12.90;94001.00;;;;7396191;19;20156;-78
2022/10/23 03:51:35;;;;;;;2.75;0.88;;;;;12.70;93999.00;;;;7392462;19;20148;-76
2022/10/23 03:54:03;;;;;;;2.60;0.65;;;;;12.80;93995.00;;;;7395755;19;20125;-78
2022/10/23 03:56:45;;;;;;;1.25;0.88;;;;;12.80;94002.00;;;;7394032;19;20644;-81
2022/10/23 03:59:12;;;;;;;3.05;0.73;;;;;12.80;93991.00;;;;7396143;19;20627;-77
2022/10/23 04:01:46;;;;;;;1.02;0.75;;;;;12.70;93993.00;;;;7393860;19;20220;-77
2022/10/23 04:04:19;;;;;;;0.60;0.60;;;;;12.70;94003.00;;;;7393573;19;20485;-79
2022/10/23 04:06:48;;;;;;;2.15;0.73;;;;;12.80;93992.00;;;;7396586;19;20535;-77
2022/10/23 04:09:27;;;;;;;0.80;0.60;;;;;12.70;93996.00;;;;7394082;19;20131;-79
2022/10/23 04:11:57;;;;;;;2.47;0.73;;;;;12.70;94005.00;;;;7392725;19;20619;-79
2022/10/23 04:14:25;;;;;;;1.13;0.70;;;;;12.80;93998.00;;;;7388873;19;20543;-78
2022/10/23 04:16:59;;;;;;;1.50;0.80;;;;;12.90;93995.00;;;;7395225;19;20486;-77
2022/10/23 04:19:27;;;;;;;1.00;0.75;;;;;13.10;93990.00;;;;7390967;19;20180;-81
2022/10/23 04:21:56;;;;;;;1.33;0.70;;;;;13.20;93993.00;;;;7393789;19;20224;-78
2022/10/23 04:24:30;;;;;;;0.80;0.70;;;;;13.40;93993.00;;;;7394494;19;20125;-77
2022/10/23 04:26:57;;;;;;;3.00;1.00;;;;;13.30;93994.00;;;;7394450;19;20155;-78
2022/10/23 04:29:25;;;;;;;0.40;0.38;;;;;13.40;93985.00;;;;7391910;19;20125;-79
2022/10/23 04:32:00;;;;;;;2.80;0.70;;;;;13.50;93992.00;;;;7395354;19;20606;-78
2022/10/23 04:34:27;;;;;;;1.70;0.40;;;;;13.60;93985.00;;;;7393116;19;20129;-76
2022/10/23 04:36:55;;;;;;;1.00;0.70;;;;;13.60;93995.00;;;;7390814;19;20133;-77
2022/10/23 04:39:29;;;;;;;1.30;0.63;;;;;13.70;93993.00;;;;7393891;19;20144;-76
2022/10/23 04:41:56;;;;;;;1.42;0.60;;;;;13.60;93995.00;;;;7397154;19;20129;-77
2022/10/23 04:44:26;;;;;;;1.02;0.70;;;;;13.50;93991.00;;;;7393836;19;20144;-76
2022/10/23 04:47:04;;;;;;;0.30;0.30;;;;;13.60;93994.00;;;;7395112;19;20144;-77
2022/10/23 04:49:33;;;;;;;1.23;0.60;;;;;13.70;93994.00;;;;7393366;19;20165;-74
2022/10/23 04:52:04;;;;;;;0.60;0.60;;;;;13.80;93996.00;;;;7393245;19;20153;-78
2022/10/23 04:54:41;;;;;;;1.35;0.57;;;;;13.60;93988.00;;;;7394665;19;20606;-77
2022/10/23 04:57:15;;;;;;;1.20;0.57;;;;;13.80;93983.00;;;;7393686;19;20651;-77
2022/10/23 04:59:50;;;;;;;2.22;0.70;;;;;13.70;93981.00;;;;7393846;19;20154;-76
2022/10/23 05:02:17;;;;;;;0.50;0.43;;;;;13.90;93973.00;;;;7395715;19;20623;-77
2022/10/23 05:04:45;;;;;;;0.52;0.50;;;;;13.90;93974.00;;;;7394795;19;20151;-78
2022/10/23 05:07:19;;;;;;;0.82;0.52;;;;;13.80;93981.00;;;;7393156;19;20504;-78
2022/10/23 05:09:50;;;;;;;1.20;0.70;;;;;13.80;93976.00;;;;7394107;19;20596;-78
2022/10/23 05:12:18;;;;;;;0.77;0.50;;;;;13.90;93970.00;;;;7391335;19;20137;-77
2022/10/23 05:14:53;;;;;;;0.70;0.43;;;;;14.10;93968.00;;;;7394805;19;20630;-77
2022/10/23 05:17:28;;;;;;;2.33;0.60;;;;;14.00;93967.00;;;;7391800;19;20129;-78
2022/10/23 05:20:11;;;;;;;0.43;0.32;;;;;13.90;93971.00;;;;7393002;19;20500;-79
2022/10/23 05:22:41;;;;;;;0.77;0.60;;;;;13.80;93962.00;;;;7397193;19;20120;-79
2022/10/23 05:25:21;;;;;;;0.47;0.47;;;;;13.80;93967.00;;;;7403939;19;20208;-80
2022/10/23 05:27:49;;;;;;;0.50;0.47;;;;;13.60;93967.00;;;;7400722;19;20166;-78
2022/10/23 05:30:17;;;;;;;1.02;0.40;;;;;13.60;93965.00;;;;7402478;19;20608;-78
2022/10/23 05:32:53;;;;;;;0.60;0.50;;;;;13.50;93955.00;;;;7401966;19;20148;-78
2022/10/23 05:35:24;;;;;;;1.10;0.60;;;;;13.50;93949.00;;;;7399023;19;20637;-78
2022/10/23 05:37:54;;;;;;;2.58;0.43;;;;;13.50;93957.00;;;;7399870;19;20133;-77
2022/10/23 05:40:29;;;;;;;0.70;0.60;;;;;13.50;93961.00;;;;7398044;19;20137;-80
2022/10/23 05:42:56;;;;;;;1.60;0.70;;;;;13.40;93957.00;;;;7400439;19;20176;-78
2022/10/23 05:45:24;;;;;;;1.50;0.68;;;;;13.50;93952.00;;;;7398555;19;20137;-78
2022/10/23 05:47:59;;;;;;;3.30;0.65;;;;;13.70;93952.00;;;;7401086;19;20722;-77
2022/10/23 05:50:43;;;;;;;3.03;0.50;;;;;13.80;93947.00;;;;7401668;19;20533;-78
2022/10/23 05:53:18;;;;;;;2.47;0.60;;;;;13.80;93952.00;;;;7398544;19;20607;-78
2022/10/23 05:55:52;;;;;;;0.32;0.32;;;;;13.80;93946.00;;;;7400443;19;20168;-78
2022/10/23 05:58:33;;;;;;;0.98;0.60;;;;;13.90;93944.00;;;;7401832;19;20490;-78
2022/10/23 06:01:10;;;;;;;1.70;0.88;;;;;13.90;93938.00;;;;7401157;19;20637;-78
2022/10/23 06:03:44;;;;;;;1.08;0.57;;;;;14.10;93945.00;;;;7397972;19;20133;-77
2022/10/23 06:06:11;;;;;;;1.95;0.55;;;;;14.20;93948.00;;;;7399248;19;20136;-77
2022/10/23 06:08:39;;;;;;;1.67;0.52;;;;;14.20;93940.00;;;;7402526;19;20694;-78
2022/10/23 06:11:15;;;;;;;2.35;0.88;;;;;14.20;93943.00;;;;7402839;19;20168;-80
2022/10/23 06:13:44;;;;;;;2.30;0.55;;;;;14.20;93931.00;;;;7399373;19;20624;-79
2022/10/23 06:16:14;;;;;;;0.40;0.40;;;;;14.30;93945.00;;;;7400053;19;20129;-79
2022/10/23 06:18:49;;;;;;;1.10;0.50;;;;;14.20;93944.00;;;;7401630;19;20499;-77
2022/10/23 06:21:21;;;;;;;0.55;0.50;;;;;14.40;93947.00;;;;7400763;19;20478;-77
2022/10/23 06:23:48;;;;;;;0.45;0.43;;;;;14.50;93946.00;;;;7398761;19;20131;-78
2022/10/23 06:26:23;;;;;;;1.23;0.60;;;;;14.60;93953.00;;;;7399806;19;20152;-78
2022/10/23 06:28:51;;;;;;;2.03;0.50;;;;;14.60;93943.00;;;;7400879;19;20160;-78
2022/10/23 06:31:19;;;;;;;2.33;0.60;;;;;14.50;93942.00;;;;7401502;19;20145;-75
2022/10/23 06:33:57;;;;;;;0.65;0.60;;;;;14.30;93939.00;;;;7399095;19;20160;-78
2022/10/23 06:36:25;;;;;;;2.22;0.63;;;;;14.40;93930.00;;;;7401083;19;20197;-76
2022/10/23 06:39:00;;;;;;;1.65;0.90;;;;;14.40;93937.00;;;;7400364;19;20491;-78
2022/10/23 06:41:44;;;;;;;0.90;0.80;;;;;14.30;93945.00;;;;7394295;19;20132;-80
2022/10/23 06:44:28;;;;;;;1.00;0.60;;;;;14.50;93935.00;;;;7398429;19;20132;-76
2022/10/23 06:46:55;;;;;;;0.65;0.60;;;;;14.40;93941.00;;;;7396971;19;20145;-78
2022/10/23 06:49:29;;;;;;;1.13;0.85;;;;;14.60;93941.00;;;;7397757;19;20154;-78
2022/10/23 06:51:57;;;;;;;1.27;0.85;;;;;14.70;93932.00;;;;7398815;19;20152;-77
2022/10/23 06:54:32;;;;;;;0.77;0.70;;;;;14.80;93934.00;;;;7399468;19;20143;-78
2022/10/23 06:57:13;;;;;;;1.95;0.80;;;;;14.80;93932.00;;;;7399350;19;20504;-78
2022/10/23 06:59:43;;;;;;;1.77;0.50;;;;;14.80;93938.00;;;;7398536;19;20160;-78
2022/10/23 07:02:20;;;;;;;0.73;0.50;;;;;14.90;93939.00;;;;7400183;19;20151;-78
2022/10/23 07:04:48;;;;;;;0.60;0.60;;;;;14.90;93944.00;;;;7397752;19;20160;-79
2022/10/23 07:07:16;;;;;;;3.60;0.50;;;;;15.00;93940.00;;;;7400386;19;20128;-78
2022/10/23 07:09:53;;;;;;;0.60;0.45;;;;;15.00;93944.00;;;;7396660;19;20124;-80
2022/10/23 07:12:21;;;;;;;2.60;0.57;;;;;15.20;93941.00;;;;7401101;19;20129;-77
2022/10/23 07:14:56;;;;;;;1.00;0.73;;;;;15.20;93946.00;;;;7399920;19;20156;-77
2022/10/23 07:17:30;;;;;;;1.25;0.80;;;;;15.30;93947.00;;;;7395933;19;20501;-79
2022/10/23 07:19:57;;;;;;;0.95;0.80;;;;;15.30;93941.00;;;;7396486;19;20160;-78
2022/10/23 07:22:25;;;;;;;1.38;0.70;;;;;15.30;93947.00;;;;7397602;19;20142;-79
2022/10/23 07:25:02;;;;;;;3.13;0.93;;;;;15.50;93943.00;;;;7397753;19;20219;-77
2022/10/23 07:27:37;;;;;;;0.52;0.50;;;;;15.50;93944.00;;;;7399873;19;20180;-78
2022/10/23 07:30:13;;;;;;;0.22;0.20;;;;;15.70;93948.00;;;;7398719;19;20171;-77
2022/10/23 07:32:41;;;;;;;0.70;0.30;;;;;15.90;93947.00;;;;7398689;19;20149;-79
2022/10/23 07:35:12;;;;;;;0.50;0.40;;;;;15.90;93946.00;;;;7399895;19;20148;-79
2022/10/23 07:37:47;;;;;;;1.77;0.50;;;;;16.20;93944.00;;;;7395703;19;20967;-78
2022/10/23 07:40:17;;;;;;;1.15;0.50;;;;;16.20;93943.00;;;;7397726;19;20629;-77
2022/10/23 07:42:45;;;;;;;0.40;0.40;;;;;16.40;93946.00;;;;7396257;19;20148;-78
2022/10/23 07:45:20;;;;;;;0.20;0.20;;;;;16.40;93945.00;;;;7393340;19;20145;-77
2022/10/23 07:47:51;;;;;;;0.40;0.40;;;;;16.40;93940.00;;;;7396018;19;20576;-77
2022/10/23 07:50:19;;;;;;;0.98;0.65;;;;;16.50;93938.00;;;;7397542;19;20140;-77
2022/10/23 07:52:53;;;;;;;0.57;0.45;;;;;16.70;93921.00;;;;7396580;19;20179;-79
2022/10/23 07:55:34;;;;;;;1.13;0.63;;;;;16.90;93925.00;;;;7397468;19;20141;-77
2022/10/23 07:58:09;;;;;;;1.23;0.55;;;;;17.10;93924.00;;;;7394708;19;20621;-76
2022/10/23 08:00:40;;;;;;;1.95;0.50;;;;;17.20;93933.00;;;;7398144;19;20145;-77
2022/10/23 08:03:09;;;;;;;1.25;0.60;;;;;17.40;93923.00;;;;7399886;19;20152;-77
2022/10/23 08:05:46;;;;;;;0.90;0.70;;;;;17.90;93925.00;;;;7398425;19;20132;-79
2022/10/23 08:08:14;;;;;;;0.70;0.57;;;;;17.90;93927.00;;;;7399304;19;20133;-76
2022/10/23 08:10:44;;;;;;;0.55;0.55;;;;;18.20;93919.00;;;;7398055;19;20156;-76
2022/10/23 08:13:20;;;;;;;0.75;0.60;;;;;18.10;93923.00;;;;7396815;19;20132;-77
2022/10/23 08:15:50;;;;;;;2.78;0.68;;;;;17.80;93913.00;;;;7399159;19;20121;-76
2022/10/23 08:18:18;;;;;;;1.27;0.50;;;;;17.90;93902.00;;;;7399002;19;20174;-76
2022/10/23 08:20:52;;;;;;;0.40;0.40;;;;;18.00;93922.00;;;;7398946;19;20144;-77
2022/10/23 08:23:22;;;;;;;0.50;0.40;;;;;18.30;93921.00;;;;7396025;19;20735;-77
2022/10/23 08:26:01;;;;;;;0.70;0.55;;;;;18.90;93921.00;;;;7393527;19;20152;-77
2022/10/23 08:28:35;;;;;;;2.28;0.50;;;;;19.00;93912.00;;;;7395295;19;20133;-77
2022/10/23 08:31:12;;;;;;;2.30;0.60;;;;;19.10;93913.00;;;;7398122;19;20521;-77
2022/10/23 08:33:46;;;;;;;0.45;0.45;;;;;19.00;93914.00;;;;7395825;19;20144;-78
2022/10/23 08:36:23;;;;;;;0.65;0.47;;;;;19.50;93914.00;;;;7394864;19;20125;-78
2022/10/23 08:38:59;;;;;;;0.50;0.50;;;;;20.00;93912.00;;;;7397223;19;20154;-78
2022/10/23 08:41:31;;;;;;;0.50;0.45;;;;;20.70;93909.00;;;;7395124;19;20148;-77
2022/10/23 08:44:21;;;;;;;1.08;0.40;;;;;20.80;93903.00;;;;7396619;19;20144;-76
2022/10/23 08:47:05;;;;;;;0.82;0.60;;;;;21.20;93903.00;;;;7397250;19;20665;-78
2022/10/23 08:49:43;;;;;;;0.60;0.60;;;;;21.50;93894.00;;;;7396212;19;20591;-76
2022/10/23 08:52:17;;;;;;;1.83;0.30;;;;;21.70;93894.00;;;;7397590;19;20161;-76
2022/10/23 08:55:00;;;;;;;0.55;0.55;;;;;21.80;93891.00;;;;7397433;19;20637;-79
2022/10/23 08:57:44;;;;;;;1.17;0.50;;;;;21.90;93893.00;;;;7394290;19;20522;-79
2022/10/23 09:00:21;;;;;;;0.40;0.40;;;;;21.90;93903.00;;;;7404922;19;20489;-77
2022/10/23 09:02:53;;;;;;;0.30;0.30;;;;;22.70;93899.00;;;;7403858;19;20144;-78
2022/10/23 09:05:50;;;;;;;0.40;0.40;;;;;22.70;93897.00;;;;7403342;19;20200;-75
2022/10/23 09:08:35;;;;;;;0.45;0.45;;;;;22.90;93891.00;;;;7404960;19;20160;-77
2022/10/23 09:11:31;;;;;;;0.65;0.40;;;;;23.00;93886.00;;;;7405040;19;20133;-76
2022/10/23 09:14:17;;;;;;;1.95;0.32;;;;;22.90;93900.00;;;;7403356;19;20606;-78
2022/10/23 09:17:04;;;;;;;0.35;0.35;;;;;22.80;93892.00;;;;7398371;19;20148;-76
2022/10/23 09:19:33;;;;;;;0.52;0.52;;;;;22.90;93889.00;;;;7402487;19;20216;-75
2022/10/23 09:22:10;;;;;;;0.22;0.22;;;;;22.90;93879.00;;;;7404217;19;20168;-76
2022/10/23 09:24:43;;;;;;;0.93;0.50;;;;;22.80;93885.00;;;;7401820;19;20204;-77
2022/10/23 09:27:20;;;;;;;0.95;0.25;;;;;23.00;93888.00;;;;7403707;19;20128;-78
2022/10/23 09:29:57;;;;;;;3.15;0.40;;;;;22.80;93882.00;;;;7402571;19;20144;-77
2022/10/23 09:32:35;;;;;;;1.05;0.55;;;;;22.80;93866.00;;;;7402915;19;20172;-78
2022/10/23 09:35:05;;;;;;;3.45;0.57;;;;;23.30;93866.00;;;;7403958;19;20500;-77
2022/10/23 09:37:54;;;;;;;0.32;0.32;;;;;23.00;93852.00;;;;7402392;19;20146;-77
2022/10/23 09:40:37;;;;;;;0.85;0.57;;;;;23.20;93844.00;;;;7401841;19;20587;-76
2022/10/23 09:43:20;;;;;;;2.42;0.93;;;;;22.90;93856.00;;;;7399015;19;20132;-78
2022/10/23 09:46:01;;;;;;;0.82;0.70;;;;;23.30;93861.00;;;;7398295;19;20125;-76
2022/10/23 09:48:37;;;;;;;0.50;0.50;;;;;23.90;93876.00;;;;7402181;19;20450;-78
2022/10/23 09:51:18;;;;;;;0.60;0.60;;;;;23.50;93884.00;;;;7398278;19;20442;-77
2022/10/23 09:53:57;;;;;;;0.75;0.73;;;;;23.70;93883.00;;;;7399611;19;20496;-78
2022/10/23 09:56:47;;;;;;;0.50;0.50;;;;;23.70;93882.00;;;;7399680;19;20189;-75
2022/10/23 09:59:26;;;;;;;0.50;0.50;;;;;23.40;93882.00;;;;7402890;19;20514;-78
2022/10/23 10:02:03;;;;;;;1.23;0.50;;;;;23.30;93872.00;;;;7399641;19;20149;-76
2022/10/23 10:04:43;;;;;;;0.40;0.40;;;;;23.30;93877.00;;;;7400187;19;20144;-77
2022/10/23 10:07:28;;;;;;;0.30;0.30;;;;;23.30;93879.00;;;;7401825;19;20148;-75
2022/10/23 10:10:18;;;;;;;1.88;0.45;;;;;23.00;93883.00;;;;7394196;19;20128;-76
2022/10/23 10:12:56;;;;;;;0.80;0.43;;;;;22.90;93884.00;;;;7398174;19;20144;-78
2022/10/23 10:15:44;;;;;;;2.10;0.57;;;;;22.90;93875.00;;;;7397958;19;20140;-76
2022/10/23 10:18:31;;;;;;;2.25;0.43;;;;;22.90;93874.00;;;;7399929;19;20140;-75
2022/10/23 10:21:26;;;;;;;2.53;0.50;;;;;23.10;93871.00;;;;7400182;19;20509;-75
2022/10/23 10:24:22;;;;;;;0.65;0.52;;;;;23.40;93863.00;;;;7399782;19;20141;-75
2022/10/23 10:27:12;;;;;;;0.55;0.50;;;;;23.50;93861.00;;;;7397498;19;20569;-77
2022/10/23 10:30:17;;;;;;;0.50;0.50;;;;;23.20;93856.00;;;;7398463;19;20155;-78
2022/10/23 10:32:58;;;;;;;1.52;0.60;;;;;22.60;93855.00;;;;7400714;19;20136;-76
2022/10/23 10:35:56;;;;;;;0.40;0.40;;;;;21.90;93864.00;;;;7399209;19;20133;-76
2022/10/23 10:38:44;;;;;;;0.75;0.70;;;;;22.00;93879.00;;;;7400225;19;20155;-76
2022/10/23 10:41:31;;;;;;;2.85;0.88;;;;;21.50;93899.00;;;;7400888;19;20152;-76
2022/10/23 10:44:37;;;;;;;1.35;0.68;;;;;21.30;93894.00;;;;7396798;19;20152;-75
2022/10/23 10:47:24;;;;;;;2.88;0.73;;;;;21.30;93894.00;;;;7398380;19;20149;-77
2022/10/23 10:50:22;;;;;;;1.73;0.80;;;;;21.10;93899.00;;;;7397289;19;20157;-77
2022/10/23 10:53:11;;;;;;;3.30;0.98;;;;;20.90;93892.00;;;;7395732;19;20176;-77
2022/10/23 10:56:01;;;;;;;1.25;0.80;;;;;20.70;93892.00;;;;7397431;19;20137;-76
2022/10/23 10:58:53;;;;;;;0.60;0.60;;;;;20.80;93878.00;;;;7399102;19;20156;-75
2022/10/23 11:01:33;;;;;;;2.67;0.82;;;;;20.90;93877.00;;;;7396524;19;20133;-77
2022/10/23 11:04:30;;;;;;;0.52;0.52;;;;;20.90;93865.00;;;;7397747;19;20148;-75
2022/10/23 11:07:10;;;;;;;0.38;0.38;;;;;20.70;93866.00;;;;7396298;19;20204;-78
2022/10/23 11:09:40;;;;;;;1.00;0.75;;;;;20.40;93869.00;;;;7396778;19;20141;-78
2022/10/23 11:12:25;;;;;;;3.10;1.00;;;;;20.40;93851.00;;;;7397500;19;20124;-77
2022/10/23 11:14:55;;;;;;;3.80;0.90;;;;;20.50;93852.00;;;;7399520;19;20156;-76
2022/10/23 11:17:38;;;;;;;2.17;0.90;;;;;20.80;93859.00;;;;7397212;19;20172;-76
2022/10/23 11:20:37;;;;;;;1.00;0.70;;;;;20.90;93841.00;;;;7397425;19;20139;-78
2022/10/23 11:23:31;;;;;;;1.30;0.90;;;;;21.10;93846.00;;;;7399001;19;20149;-77
2022/10/23 11:26:19;;;;;;;1.63;0.90;;;;;21.10;93841.00;;;;7395542;19;20164;-77
2022/10/23 11:29:02;;;;;;;1.30;0.68;;;;;21.30;93834.00;;;;7398078;19;20153;-76
2022/10/23 11:31:34;;;;;;;0.90;0.85;;;;;21.20;93835.00;;;;7396001;19;20132;-77
2022/10/23 11:34:36;;;;;;;1.65;0.80;;;;;21.00;93836.00;;;;7396909;19;20152;-77
2022/10/23 11:37:05;;;;;;;0.80;0.80;;;;;21.30;93837.00;;;;7398321;19;20169;-79
2022/10/23 11:39:39;;;;;;;2.30;0.93;;;;;21.60;93834.00;;;;7398085;19;20168;-77
2022/10/23 11:42:12;;;;;;;2.75;0.75;;;;;21.50;93828.00;;;;7397434;19;20153;-78
2022/10/23 11:44:49;;;;;;;4.82;1.00;;;;;21.40;93834.00;;;;7397797;19;20626;-77
2022/10/23 11:47:41;;;;;;;0.95;0.85;;;;;21.40;93822.00;;;;7394869;19;20224;-77
2022/10/23 11:50:47;;;;;;;2.38;0.80;;;;;21.10;93829.00;;;;7395467;19;20137;-77
2022/10/23 11:53:30;;;;;;;1.05;0.95;;;;;21.20;93827.00;;;;7394826;19;20160;-76
2022/10/23 11:56:19;;;;;;;1.52;0.88;;;;;21.10;93822.00;;;;7393882;19;20153;-76
2022/10/23 11:59:09;;;;;;;1.02;0.80;;;;;21.00;93813.00;;;;7393291;19;20473;-78
2022/10/23 12:01:44;;;;;;;1.85;0.98;;;;;21.00;93810.00;;;;7396449;19;20528;-78
2022/10/23 12:04:12;;;;;;;2.13;1.10;;;;;20.90;93817.00;;;;7395816;19;20148;-79
2022/10/23 12:06:47;;;;;;;1.50;0.98;;;;;21.00;93814.00;;;;7394824;19;20184;-76
2022/10/23 12:09:43;;;;;;;3.72;1.17;;;;;20.60;93809.00;;;;7393110;19;20495;-75
2022/10/23 12:12:14;;;;;;;3.28;0.90;;;;;20.50;93806.00;;;;7394085;19;20144;-75
2022/10/23 12:14:50;;;;;;;2.15;1.13;;;;;20.50;93810.00;;;;7397950;19;20586;-77
2022/10/23 12:17:24;;;;;;;3.45;1.08;;;;;20.80;93813.00;;;;7398097;19;20155;-76
2022/10/23 12:20:11;;;;;;;2.28;0.90;;;;;21.00;93813.00;;;;7396969;19;20496;-75
2022/10/23 12:22:39;;;;;;;3.15;1.05;;;;;21.20;93809.00;;;;7396960;19;20152;-75
2022/10/23 12:25:33;;;;;;;2.00;1.00;;;;;21.50;93801.00;;;;7398732;19;20594;-74
2022/10/23 12:28:33;;;;;;;0.93;0.80;;;;;21.60;93789.00;;;;7395016;19;20459;-77
2022/10/23 12:31:39;;;;;;;1.85;1.00;;;;;22.00;93789.00;;;;7394365;19;20508;-77
2022/10/23 12:34:38;;;;;;;2.20;0.82;;;;;22.00;93786.00;;;;7392352;19;20530;-76
2022/10/23 12:37:37;;;;;;;4.60;1.00;;;;;22.40;93781.00;;;;7396254;19;20152;-73
2022/10/23 12:40:08;;;;;;;1.65;0.90;;;;;22.30;93776.00;;;;7392435;19;20489;-76
2022/10/23 12:42:52;;;;;;;2.42;1.00;;;;;22.30;93770.00;;;;7394793;19;20147;-76
2022/10/23 12:45:25;;;;;;;3.33;1.80;;;;;22.50;93762.00;;;;7390516;19;20148;-75
2022/10/23 12:48:00;;;;;;;1.75;1.20;;;;;22.50;93764.00;;;;7394579;19;20446;-76
2022/10/23 12:50:31;;;;;;;2.40;1.00;;;;;22.80;93757.00;;;;7394829;19;20159;-76
2022/10/23 12:53:06;;;;;;;5.13;1.02;;;;;22.60;93758.00;;;;7391917;19;20183;-76
2022/10/23 12:56:05;;;;;;;0.70;0.60;;;;;22.50;93744.00;;;;7392281;19;20153;-77
2022/10/23 12:58:50;;;;;;;3.60;1.20;;;;;23.00;93736.00;;;;7394848;19;20607;-78
2022/10/23 13:01:28;;;;;;;3.42;1.23;;;;;23.50;93727.00;;;;7395213;19;20152;-76
2022/10/23 13:04:01;;;;;;;6.25;1.27;;;;;23.90;93726.00;;;;7394788;19;20133;-75
2022/10/23 13:06:38;;;;;;;2.80;1.15;;;;;24.40;93711.00;;;;7394526;19;20132;-76
2022/10/23 13:09:14;;;;;;;2.40;1.20;;;;;24.50;93720.00;;;;7396312;19;20507;-76